createdAt,value
2023-03-21T00:01:53.203Z,12.90
2023-03-21T00:04:20.698Z,12.02
2023-03-21T00:06:48.135Z,11.20
2023-03-21T00:09:16.424Z,11.48
2023-03-21T00:11:44.113Z,10.73
2023-03-21T00:14:15.261Z,11.75
2023-03-21T00:16:46.304Z,10.50
2023-03-21T00:19:16.083Z,11.00
2023-03-21T00:21:59.572Z,11.75
2023-03-21T00:24:32.905Z,11.30
2023-03-21T00:27:24.635Z,11.93
2023-03-21T00:29:51.202Z,12.13
2023-03-21T00:32:18.914Z,11.70
2023-03-21T00:35:01.533Z,13.82
2023-03-21T00:37:35.590Z,11.60
2023-03-21T00:40:16.297Z,11.35
2023-03-21T00:42:48.190Z,12.63
2023-03-21T00:45:16.760Z,13.23
2023-03-21T00:47:44.213Z,12.90
2023-03-21T00:50:13.172Z,13.45
2023-03-21T00:52:41.436Z,13.88
2023-03-21T00:55:16.699Z,15.80
2023-03-21T00:57:47.523Z,14.57
2023-03-21T01:00:21.500Z,13.50
2023-03-21T01:03:04.286Z,13.32
2023-03-21T01:05:57.648Z,14.25
2023-03-21T01:08:33.063Z,13.48
2023-03-21T01:11:08.444Z,13.88
2023-03-21T01:13:40.896Z,15.60
2023-03-21T01:16:12.094Z,15.43
2023-03-21T01:18:41.318Z,13.52
2023-03-21T01:21:14.344Z,13.45
2023-03-21T01:23:43.312Z,14.32
2023-03-21T01:26:12.837Z,15.15
2023-03-21T01:28:42.040Z,15.80
2023-03-21T01:31:12.648Z,15.55
2023-03-21T01:33:41.084Z,16.30
2023-03-21T01:36:13.144Z,16.50
2023-03-21T01:38:42.946Z,17.30
2023-03-21T01:41:20.581Z,17.48
2023-03-21T01:43:48.079Z,17.02
2023-03-21T01:46:32.273Z,14.63
2023-03-21T01:49:09.059Z,16.38
2023-03-21T01:51:42.443Z,18.70
2023-03-21T01:54:20.322Z,14.15
2023-03-21T01:56:48.260Z,15.40
2023-03-21T01:59:21.843Z,14.25
2023-03-21T02:01:53.203Z,15.10
2023-03-21T02:04:28.144Z,15.23
2023-03-21T02:07:01.758Z,15.90
2023-03-21T02:09:33.655Z,14.98
2023-03-21T02:12:04.618Z,14.77
2023-03-21T02:14:34.788Z,14.55
2023-03-21T02:17:13.757Z,14.80
2023-03-21T02:20:31.851Z,13.88
2023-03-21T02:23:31.473Z,14.10
2023-03-21T02:26:39.527Z,14.63
2023-03-21T02:29:26.583Z,13.80
2023-03-21T02:32:16.498Z,14.13
2023-03-21T02:35:08.599Z,14.60
2023-03-21T02:37:44.626Z,13.90
2023-03-21T02:40:18.430Z,14.00
2023-03-21T02:43:00.749Z,16.17
2023-03-21T02:45:35.045Z,16.13
2023-03-21T02:48:10.060Z,15.48
2023-03-21T02:50:43.821Z,16.88
2023-03-21T02:53:17.625Z,17.20
2023-03-21T02:55:47.760Z,17.02
2023-03-21T02:58:19.970Z,18.58
2023-03-21T03:00:49.637Z,19.65
2023-03-21T03:03:27.890Z,17.58
2023-03-21T03:06:02.764Z,17.08
2023-03-21T03:08:50.151Z,17.05
2023-03-21T03:11:29.024Z,16.17
2023-03-21T03:14:35.760Z,18.50
2023-03-21T03:17:11.189Z,18.00
2023-03-21T03:19:51.504Z,15.38
2023-03-21T03:25:04.745Z,17.02
2023-03-21T03:27:44.842Z,18.38
2023-03-21T03:30:14.417Z,18.23
2023-03-21T03:32:50.886Z,18.77
2023-03-21T03:35:20.606Z,16.38
2023-03-21T03:37:52.109Z,17.27
2023-03-21T03:40:26.183Z,17.73
2023-03-21T03:42:59.884Z,15.98
2023-03-21T03:45:32.609Z,16.50
2023-03-21T03:48:08.413Z,17.35
2023-03-21T03:50:42.648Z,16.35
2023-03-21T03:55:50.437Z,15.40
2023-03-21T03:58:24.034Z,18.52
2023-03-21T04:00:55.113Z,16.38
2023-03-21T04:03:22.718Z,17.38
2023-03-21T04:05:50.763Z,16.95
2023-03-21T04:08:18.496Z,15.80
2023-03-21T04:10:47.680Z,17.85
2023-03-21T04:13:15.558Z,17.42
2023-03-21T04:15:44.650Z,17.20
2023-03-21T04:18:12.818Z,17.15
2023-03-21T04:23:11.404Z,17.77
2023-03-21T04:25:53.987Z,17.08
2023-03-21T04:28:26.317Z,15.88
2023-03-21T04:31:03.557Z,18.42
2023-03-21T04:33:38.609Z,17.35
2023-03-21T04:36:26.624Z,16.85
2023-03-21T04:38:55.092Z,15.05
2023-03-21T04:41:22.550Z,14.68
2023-03-21T04:43:54.811Z,14.18
2023-03-21T04:46:23.572Z,14.00
2023-03-21T04:48:51.381Z,13.48
2023-03-21T04:51:31.413Z,13.30
2023-03-21T04:54:03.672Z,14.25
2023-03-21T04:56:37.960Z,14.00
2023-03-21T04:59:13.951Z,13.32
2023-03-21T05:01:46.325Z,13.52
2023-03-21T05:04:16.996Z,13.15
2023-03-21T05:06:46.341Z,14.50
2023-03-21T05:09:15.125Z,15.02
2023-03-21T05:11:43.082Z,13.73
2023-03-21T05:14:17.534Z,15.32
2023-03-21T05:19:23.467Z,16.75
2023-03-21T05:21:51.084Z,16.92
2023-03-21T05:24:21.077Z,18.55
2023-03-21T05:26:52.835Z,17.65
2023-03-21T05:29:23.071Z,18.85
2023-03-21T05:31:52.349Z,19.58
2023-03-21T05:34:20.036Z,18.05
2023-03-21T05:36:49.995Z,16.50
2023-03-21T05:39:22.389Z,16.05
2023-03-21T05:42:08.553Z,16.27
2023-03-21T05:44:44.030Z,16.20
2023-03-21T05:47:37.440Z,14.75
2023-03-21T05:50:07.120Z,15.75
2023-03-21T05:52:34.713Z,15.50
2023-03-21T05:55:04.133Z,15.00
2023-03-21T05:57:39.678Z,15.65
2023-03-21T06:00:10.875Z,14.27
2023-03-21T06:02:38.767Z,14.07
2023-03-21T06:05:07.404Z,14.27
2023-03-21T06:07:40.056Z,14.10
2023-03-21T06:10:09.454Z,13.75
2023-03-21T06:12:37.690Z,14.30
2023-03-21T06:17:34.926Z,14.48
2023-03-21T06:20:04.772Z,14.20
2023-03-21T06:22:32.430Z,14.82
2023-03-21T06:24:59.759Z,15.30
2023-03-21T06:27:27.595Z,14.55
2023-03-21T06:29:55.486Z,14.93
2023-03-21T06:32:23.149Z,14.68
2023-03-21T06:34:52.974Z,14.65
2023-03-21T06:37:20.545Z,13.77
2023-03-21T06:39:48.258Z,13.65
2023-03-21T06:42:16.131Z,15.30
2023-03-21T06:44:43.851Z,15.10
2023-03-21T06:47:11.856Z,15.07
2023-03-21T06:49:39.346Z,13.90
2023-03-21T06:52:08.397Z,16.20
2023-03-21T06:54:36.382Z,14.88
2023-03-21T06:57:08.080Z,15.43
2023-03-21T06:59:47.576Z,14.90
2023-03-21T07:02:16.126Z,14.48
2023-03-21T07:04:47.891Z,15.40
2023-03-21T07:07:18.285Z,15.20
2023-03-21T07:09:48.767Z,16.25
2023-03-21T07:12:16.618Z,15.15
2023-03-21T07:14:53.569Z,14.88
2023-03-21T07:17:21.801Z,14.38
2023-03-21T07:19:50.705Z,12.10
2023-03-21T07:22:23.321Z,14.48
2023-03-21T07:25:04.255Z,14.60
2023-03-21T07:27:33.420Z,13.35
2023-03-21T07:32:34.107Z,12.68
2023-03-21T07:35:01.984Z,11.70
2023-03-21T07:37:35.051Z,12.35
2023-03-21T07:42:37.254Z,12.35
2023-03-21T07:45:09.831Z,11.90
2023-03-21T07:47:37.332Z,12.80
2023-03-21T07:50:06.580Z,12.05
2023-03-21T07:52:36.879Z,11.95
2023-03-21T07:55:05.009Z,13.02
2023-03-21T08:00:03.706Z,11.05
2023-03-21T08:02:34.537Z,12.40
2023-03-21T08:05:08.269Z,13.10
2023-03-21T08:07:46.468Z,12.02
2023-03-21T08:10:14.698Z,12.43
2023-03-21T08:12:53.904Z,11.68
2023-03-21T08:15:24.570Z,11.02
2023-03-21T08:17:52.641Z,11.00
2023-03-21T08:20:25.067Z,10.15
2023-03-21T08:22:54.131Z,11.65
2023-03-21T08:25:24.920Z,10.90
2023-03-21T08:27:52.679Z,10.98
2023-03-21T08:30:26.978Z,10.32
2023-03-21T08:33:00.529Z,10.55
2023-03-21T08:35:29.753Z,11.95
2023-03-21T08:37:59.527Z,11.48
2023-03-21T08:40:27.557Z,10.73
2023-03-21T08:42:55.880Z,11.68
2023-03-21T08:45:23.928Z,10.45
2023-03-21T08:47:57.792Z,9.82
2023-03-21T08:50:31.797Z,9.88
2023-03-21T08:53:01.482Z,10.02
2023-03-21T08:55:39.776Z,9.77
2023-03-21T08:58:08.117Z,9.45
2023-03-21T09:00:36.838Z,8.77
2023-03-21T09:03:10.597Z,8.23
2023-03-21T09:05:39.834Z,8.30
2023-03-21T09:08:10.675Z,8.07
2023-03-21T09:10:41.304Z,7.82
2023-03-21T09:13:09.788Z,8.20
2023-03-21T09:15:40.760Z,7.63
2023-03-21T09:18:16.370Z,7.03
2023-03-21T09:20:50.493Z,6.25
2023-03-21T09:23:23.215Z,6.13
2023-03-21T09:25:51.957Z,6.72
2023-03-21T09:28:22.743Z,5.88
2023-03-21T09:30:50.948Z,6.50
2023-03-21T09:33:25.846Z,6.78
2023-03-21T09:35:58.043Z,6.50
2023-03-21T09:38:37.235Z,6.40
2023-03-21T09:41:16.402Z,6.07
2023-03-21T09:44:04.333Z,5.57
2023-03-21T09:46:43.740Z,5.78
2023-03-21T09:49:22.603Z,5.30
2023-03-21T09:51:54.977Z,5.68
2023-03-21T09:54:34.041Z,5.47
2023-03-21T09:57:19.883Z,5.28
2023-03-21T09:59:56.808Z,5.30
2023-03-21T10:02:41.368Z,6.22
2023-03-21T10:05:19.093Z,5.30
2023-03-21T10:08:01.303Z,5.47
2023-03-21T10:10:39.758Z,5.68
2023-03-21T10:13:16.205Z,5.90
2023-03-21T10:15:51.310Z,5.18
2023-03-21T10:18:22.841Z,5.80
2023-03-21T10:20:52.194Z,6.00
2023-03-21T10:23:22.800Z,5.63
2023-03-21T10:25:56.667Z,6.38
2023-03-21T10:28:27.868Z,5.65
2023-03-21T10:31:01.059Z,5.35
2023-03-21T10:33:34.064Z,6.18
2023-03-21T10:36:07.041Z,6.03
2023-03-21T10:38:35.944Z,6.15
2023-03-21T10:41:05.060Z,6.60
2023-03-21T10:43:38.092Z,7.35
2023-03-21T10:46:14.702Z,6.80
2023-03-21T10:48:48.402Z,8.45
2023-03-21T10:51:27.883Z,6.53
2023-03-21T10:54:01.792Z,6.88
2023-03-21T10:56:51.468Z,7.68
2023-03-21T10:59:23.419Z,6.68
2023-03-21T11:01:57.417Z,7.30
2023-03-21T11:04:34.432Z,6.93
2023-03-21T11:07:09.305Z,6.75
2023-03-21T11:09:53.513Z,6.85
2023-03-21T11:12:35.284Z,7.93
2023-03-21T11:15:27.310Z,6.75
2023-03-21T11:17:55.486Z,7.53
2023-03-21T11:22:58.312Z,10.35
2023-03-21T11:25:38.174Z,11.13
2023-03-21T11:28:12.567Z,7.90
2023-03-21T11:30:54.564Z,7.43
2023-03-21T11:33:23.603Z,7.03
2023-03-21T11:36:03.055Z,6.32
2023-03-21T11:38:36.954Z,6.53
2023-03-21T11:41:08.234Z,6.38
2023-03-21T11:43:41.698Z,6.07
2023-03-21T11:46:14.475Z,6.03
2023-03-21T11:48:45.178Z,6.30
2023-03-21T11:51:25.400Z,6.38
2023-03-21T11:54:07.267Z,6.28
2023-03-21T11:56:38.594Z,7.07
2023-03-21T11:59:23.497Z,5.78
2023-03-21T12:02:14.002Z,6.43
2023-03-21T12:04:47.032Z,6.85
2023-03-21T12:07:27.212Z,6.88
2023-03-21T12:10:12.148Z,7.32
2023-03-21T12:12:54.049Z,7.60
2023-03-21T12:15:29.628Z,7.70
2023-03-21T12:18:03.616Z,7.00
2023-03-21T12:20:47.398Z,7.15
2023-03-21T12:23:41.145Z,7.97
2023-03-21T12:26:23.998Z,6.65
2023-03-21T12:29:21.092Z,6.60
2023-03-21T12:32:05.964Z,7.30
2023-03-21T12:34:56.718Z,7.50
2023-03-21T12:37:33.993Z,7.85
2023-03-21T12:40:10.734Z,7.70
2023-03-21T12:42:53.113Z,7.38
2023-03-21T12:45:24.742Z,7.50
2023-03-21T12:47:59.758Z,6.97
2023-03-21T12:50:37.162Z,7.78
2023-03-21T12:53:23.221Z,7.85
2023-03-21T12:55:53.294Z,7.07
2023-03-21T12:58:26.404Z,6.43
2023-03-21T13:00:57.011Z,6.22
2023-03-21T13:03:40.869Z,6.93
2023-03-21T13:06:13.443Z,6.05
2023-03-21T13:08:49.279Z,5.18
2023-03-21T13:11:22.622Z,4.47
2023-03-21T13:14:01.428Z,4.35
2023-03-21T13:16:36.727Z,4.28
2023-03-21T13:19:18.601Z,3.95
2023-03-21T13:22:01.665Z,4.38
2023-03-21T13:24:38.290Z,4.82
2023-03-21T13:27:17.058Z,5.13
2023-03-21T13:29:47.666Z,4.88
2023-03-21T13:32:29.991Z,4.80
2023-03-21T13:35:01.250Z,4.75
2023-03-21T13:37:39.203Z,4.80
2023-03-21T13:40:23.035Z,5.07
2023-03-21T13:42:59.729Z,5.75
2023-03-21T13:45:33.636Z,4.55
2023-03-21T13:48:05.789Z,5.10
2023-03-21T13:51:01.412Z,4.53
2023-03-21T13:53:37.162Z,5.78
2023-03-21T13:56:24.182Z,5.38
2023-03-21T13:58:55.072Z,4.97
2023-03-21T14:01:31.862Z,4.63
2023-03-21T14:04:06.529Z,4.60
2023-03-21T14:06:43.960Z,4.65
2023-03-21T14:09:19.945Z,4.75
2023-03-21T14:11:48.954Z,4.50
2023-03-21T14:14:20.313Z,4.60
2023-03-21T14:16:52.819Z,5.50
2023-03-21T14:19:21.609Z,5.32
2023-03-21T14:21:53.931Z,5.90
2023-03-21T14:24:24.257Z,5.18
2023-03-21T14:26:55.803Z,5.93
2023-03-21T14:29:27.137Z,6.25
2023-03-21T14:31:56.848Z,6.03
2023-03-21T14:34:27.760Z,5.93
2023-03-21T14:36:58.975Z,7.90
2023-03-21T14:39:29.799Z,5.32
2023-03-21T14:42:04.559Z,5.43
2023-03-21T14:44:58.390Z,6.07
2023-03-21T14:47:28.416Z,5.72
2023-03-21T14:50:02.068Z,5.57
2023-03-21T14:52:35.155Z,4.53
2023-03-21T14:55:15.752Z,5.60
2023-03-21T14:57:48.534Z,5.22
2023-03-21T15:00:24.170Z,6.53
2023-03-21T15:02:58.906Z,6.90
2023-03-21T15:05:32.050Z,7.53
2023-03-21T15:08:15.995Z,6.95
2023-03-21T15:11:07.371Z,5.78
2023-03-21T15:13:47.843Z,5.05
2023-03-21T15:16:25.309Z,5.18
2023-03-21T15:19:10.894Z,4.25
2023-03-21T15:21:43.095Z,5.63
2023-03-21T15:24:23.176Z,5.35
2023-03-21T15:27:00.627Z,6.00
2023-03-21T15:29:43.621Z,5.55
2023-03-21T15:32:23.077Z,5.55
2023-03-21T15:35:10.745Z,5.60
2023-03-21T15:37:41.479Z,5.80
2023-03-21T15:40:22.128Z,5.45
2023-03-21T15:43:21.615Z,5.43
2023-03-21T15:45:56.323Z,5.13
2023-03-21T15:48:29.747Z,4.95
2023-03-21T15:51:06.604Z,4.82
2023-03-21T15:53:38.256Z,4.72
2023-03-21T15:56:16.666Z,4.78
2023-03-21T15:58:50.888Z,4.88
2023-03-21T16:01:25.762Z,4.07
2023-03-21T16:03:57.854Z,3.97
2023-03-21T16:06:34.238Z,4.95
2023-03-21T16:09:12.546Z,4.43
2023-03-21T16:11:48.390Z,3.60
2023-03-21T16:14:19.290Z,3.50
2023-03-21T16:16:50.106Z,3.40
2023-03-21T16:19:19.274Z,3.42
2023-03-21T16:21:47.021Z,3.50
2023-03-21T16:24:14.506Z,2.80
2023-03-21T16:26:47.812Z,2.83
2023-03-21T16:29:18.204Z,3.33
2023-03-21T16:31:48.519Z,2.72
2023-03-21T16:34:16.200Z,2.53
2023-03-21T16:36:45.139Z,2.60
2023-03-21T16:39:20.992Z,3.10
2023-03-21T16:41:53.682Z,2.75
2023-03-21T16:44:24.604Z,3.00
2023-03-21T16:46:52.634Z,2.97
2023-03-21T16:49:24.893Z,3.58
2023-03-21T16:51:54.970Z,2.97
2023-03-21T16:54:26.043Z,3.65
2023-03-21T16:56:59.733Z,3.42
2023-03-21T16:59:27.095Z,3.10
2023-03-21T17:01:58.825Z,2.78
2023-03-21T17:04:33.179Z,3.22
2023-03-21T17:07:02.151Z,3.35
2023-03-21T17:09:32.652Z,7.63
2023-03-21T17:12:02.813Z,2.42
2023-03-21T17:14:31.397Z,2.95
2023-03-21T17:16:58.917Z,2.50
2023-03-21T17:19:28.537Z,6.65
2023-03-21T17:21:55.708Z,13.32
2023-03-21T17:24:23.973Z,3.58
2023-03-21T17:26:51.245Z,2.75
2023-03-21T17:29:25.465Z,2.25
2023-03-21T17:31:53.077Z,2.10
2023-03-21T17:34:21.057Z,2.25
2023-03-21T17:39:20.242Z,2.22
2023-03-21T17:41:50.530Z,1.67
2023-03-21T17:44:18.375Z,1.90
2023-03-21T17:46:50.224Z,2.00
2023-03-21T17:49:22.021Z,1.67
2023-03-21T17:51:50.636Z,1.90
2023-03-21T17:54:18.374Z,1.50
2023-03-21T17:56:46.073Z,1.75
2023-03-21T17:59:15.251Z,1.90
2023-03-21T18:01:47.901Z,1.98
2023-03-21T18:04:18.140Z,1.65
2023-03-21T18:06:45.463Z,1.80
2023-03-21T18:09:13.318Z,1.80
2023-03-21T18:11:44.225Z,1.45
2023-03-21T18:14:18.241Z,1.80
2023-03-21T18:16:54.312Z,1.70
2023-03-21T18:19:21.655Z,1.42
2023-03-21T18:21:49.441Z,1.50
2023-03-21T18:24:20.726Z,1.50
2023-03-21T18:26:58.203Z,1.40
2023-03-21T18:30:19.653Z,1.15
2023-03-21T18:32:18.000Z,3.75
2023-03-21T18:34:46.784Z,0.82
2023-03-21T18:37:14.641Z,1.17
2023-03-21T18:39:46.601Z,1.60
2023-03-21T18:42:18.872Z,1.38
2023-03-21T18:44:48.716Z,1.40
2023-03-21T18:47:19.624Z,1.50
2023-03-21T18:50:13.784Z,1.10
2023-03-21T18:52:34.289Z,2.10
2023-03-21T18:55:02.655Z,1.63
2023-03-21T18:57:38.980Z,1.73
2023-03-21T19:00:12.950Z,2.22
2023-03-21T19:02:48.327Z,1.40
2023-03-21T19:05:16.611Z,1.30
2023-03-21T19:10:19.023Z,2.10
2023-03-21T19:12:53.107Z,1.30
2023-03-21T19:15:25.157Z,1.60
2023-03-21T19:18:49.487Z,1.90
2023-03-21T19:21:23.636Z,5.57
2023-03-21T19:26:39.655Z,4.35
2023-03-21T19:29:09.399Z,1.90
2023-03-21T19:31:36.893Z,2.38
2023-03-21T19:34:10.264Z,2.35
2023-03-21T19:36:37.819Z,1.55
2023-03-21T19:39:04.966Z,1.80
2023-03-21T19:41:32.767Z,1.85
2023-03-21T19:44:00.843Z,1.95
2023-03-21T19:46:28.174Z,2.20
2023-03-21T19:48:56.957Z,1.70
2023-03-21T19:51:29.838Z,1.38
2023-03-21T19:54:00.304Z,1.73
2023-03-21T19:56:28.049Z,1.70
2023-03-21T19:58:56.278Z,1.90
2023-03-21T20:01:24.873Z,2.22
2023-03-21T20:03:52.585Z,2.30
2023-03-21T20:06:22.529Z,1.60
2023-03-21T20:11:40.973Z,2.10
2023-03-21T20:14:08.661Z,1.80
2023-03-21T20:16:37.645Z,2.22
2023-03-21T20:19:08.908Z,2.25
2023-03-21T20:21:48.568Z,1.88
2023-03-21T20:24:20.728Z,2.20
2023-03-21T20:26:49.345Z,2.55
2023-03-21T20:30:07.122Z,1.67
2023-03-21T20:32:04.866Z,2.38
2023-03-21T20:34:36.901Z,57.55
2023-03-21T20:37:06.149Z,5.30
2023-03-21T20:39:35.543Z,35.30
2023-03-21T20:42:02.928Z,2.85
2023-03-21T20:45:03.040Z,2.70
2023-03-21T20:47:22.378Z,2.67
2023-03-21T20:49:50.103Z,2.47
2023-03-21T20:55:14.619Z,2.30
2023-03-21T20:57:42.290Z,2.95
2023-03-21T21:00:15.481Z,3.45
2023-03-21T21:02:44.788Z,3.25
2023-03-21T21:05:33.084Z,3.67
2023-03-21T21:08:04.101Z,3.92
2023-03-21T21:10:33.733Z,3.33
2023-03-21T21:13:02.016Z,4.32
2023-03-21T21:15:29.799Z,3.88
2023-03-21T21:18:07.403Z,3.60
2023-03-21T21:20:35.847Z,4.30
2023-03-21T21:23:03.165Z,3.75
2023-03-21T21:25:34.448Z,4.05
2023-03-21T21:28:03.833Z,3.47
2023-03-21T21:30:32.665Z,3.45
2023-03-21T21:33:01.233Z,3.95
2023-03-21T21:35:28.821Z,3.72
2023-03-21T21:37:59.467Z,3.67
2023-03-21T21:40:27.212Z,3.50
2023-03-21T21:42:56.632Z,3.00
2023-03-21T21:45:24.418Z,3.42
2023-03-21T21:47:52.102Z,3.58
2023-03-21T21:50:24.560Z,3.20
2023-03-21T21:52:52.972Z,3.00
2023-03-21T21:55:23.443Z,2.72
2023-03-21T21:57:54.094Z,2.88
2023-03-21T22:00:25.544Z,2.67
2023-03-21T22:02:54.847Z,2.70
2023-03-21T22:05:22.375Z,2.13
2023-03-21T22:07:54.257Z,2.33
2023-03-21T22:10:25.583Z,2.20
2023-03-21T22:12:55.881Z,2.13
2023-03-21T22:15:27.652Z,2.50
2023-03-21T22:17:54.957Z,2.10
2023-03-21T22:20:23.022Z,1.77
2023-03-21T22:22:51.658Z,1.83
2023-03-21T22:25:22.087Z,1.80
2023-03-21T22:27:49.434Z,2.00
2023-03-21T22:30:17.795Z,2.20
2023-03-21T22:32:56.375Z,1.45
2023-03-21T22:35:32.121Z,1.70
2023-03-21T22:38:02.359Z,1.80
2023-03-21T22:40:36.521Z,1.50
2023-03-21T22:45:34.963Z,1.30
2023-03-21T22:48:07.717Z,1.58
2023-03-21T22:50:35.193Z,1.23
2023-03-21T22:53:08.051Z,2.45
2023-03-21T22:55:35.757Z,1.58
2023-03-21T22:58:06.692Z,1.40
2023-03-21T23:00:34.795Z,1.48
2023-03-21T23:03:03.404Z,1.23
2023-03-21T23:05:31.489Z,1.45
2023-03-21T23:08:01.502Z,1.30
2023-03-21T23:10:32.100Z,1.40
2023-03-21T23:13:04.519Z,1.88
2023-03-21T23:15:32.295Z,1.30
2023-03-21T23:18:05.317Z,1.40
2023-03-21T23:20:33.134Z,1.75
2023-03-21T23:23:03.478Z,1.60
2023-03-21T23:25:31.297Z,1.17
2023-03-21T23:28:00.174Z,1.33
2023-03-21T23:30:27.493Z,1.58
2023-03-21T23:32:55.851Z,1.35
2023-03-21T23:35:24.722Z,1.73
2023-03-21T23:37:52.851Z,1.25
2023-03-21T23:40:23.504Z,1.23
2023-03-21T23:42:50.918Z,1.13
2023-03-21T23:45:20.364Z,1.30
2023-03-21T23:47:50.233Z,1.33
2023-03-21T23:50:17.758Z,1.30
2023-03-21T23:52:46.506Z,1.90
2023-03-21T23:55:13.635Z,1.52
2023-03-21T23:57:43.942Z,1.27
